Terminal Aerodrome Forecast
Issued by NWS

Home | Current Version | Previous Version | Text Only | Print | Product List | Glossary On
Versions: 1 2 3 4 5 6 7 8 9 10 11 12 13 14 15 16 17 18 19 20
180
FTAK31 PAJN 250542
TAFAYA
TAF
PAYA 250542Z 2506/2606 VRB03KT 4SM -RA SCT006 OVC015
      TEMPO 2506/2510 1SM -RA BR OVC006
     FM251000 00000KT 2SM -RA BR BKN006 OVC010
     FM251800 24006KT 5SM -RA BR SCT007 OVC010
      AMD LTD TO CLD VIS AND WIND 2506/2509=

USA.gov is the U.S. government's official web portal to all federal, state and local government web resources and services.